createdAt,value
2018-04-20T00:00:22.065Z,8.00
2018-04-20T00:01:22.064Z,8.00
2018-04-20T00:02:22.064Z,8.00
2018-04-20T00:03:22.065Z,8.00
2018-04-20T00:04:22.065Z,8.00
2018-04-20T00:05:22.066Z,8.00
2018-04-20T00:06:22.066Z,8.00
2018-04-20T00:07:22.066Z,8.00
2018-04-20T00:08:22.067Z,8.00
2018-04-20T00:09:22.067Z,8.00
2018-04-20T00:10:22.067Z,8.00
2018-04-20T00:11:22.070Z,8.00
2018-04-20T00:12:22.068Z,8.00
2018-04-20T00:13:22.073Z,8.00
2018-04-20T00:14:22.070Z,8.00
2018-04-20T00:15:22.075Z,8.00
2018-04-20T00:16:22.072Z,8.00
2018-04-20T00:17:22.070Z,8.00
2018-04-20T00:18:22.070Z,8.00
2018-04-20T00:19:22.070Z,8.00
2018-04-20T00:20:22.071Z,8.00
2018-04-20T00:21:22.071Z,8.00
2018-04-20T00:22:22.071Z,8.00
2018-04-20T00:23:22.076Z,8.00
2018-04-20T00:24:22.073Z,8.00
2018-04-20T00:25:22.073Z,8.00
2018-04-20T00:26:22.074Z,8.00
2018-04-20T00:27:22.076Z,8.00
2018-04-20T00:28:22.075Z,8.00
2018-04-20T00:29:22.074Z,8.00
2018-04-20T00:30:22.073Z,8.00
2018-04-20T00:31:22.076Z,8.00
2018-04-20T00:32:22.074Z,8.00
2018-04-20T00:33:22.076Z,8.00
2018-04-20T00:34:22.075Z,8.00
2018-04-20T00:35:22.075Z,8.00
2018-04-20T00:36:22.075Z,8.00
2018-04-20T00:37:22.076Z,8.00
2018-04-20T00:38:22.079Z,8.00
2018-04-20T00:39:22.084Z,8.00
2018-04-20T00:40:22.079Z,8.00
2018-04-20T00:41:22.081Z,8.00
2018-04-20T00:42:22.077Z,8.00
2018-04-20T00:43:22.074Z,8.00
2018-04-20T00:44:22.075Z,8.00
2018-04-20T00:45:22.075Z,8.00
2018-04-20T00:46:22.077Z,8.00
2018-04-20T00:47:22.075Z,8.00
2018-04-20T00:48:22.078Z,8.00
2018-04-20T00:49:22.075Z,8.00
2018-04-20T00:50:22.075Z,8.00
2018-04-20T00:51:22.078Z,8.00
2018-04-20T00:52:22.076Z,8.00
2018-04-20T00:53:22.078Z,8.00
2018-04-20T00:54:22.076Z,8.00
2018-04-20T00:55:22.075Z,8.00
2018-04-20T00:56:22.081Z,8.00
2018-04-20T00:57:22.075Z,8.00
2018-04-20T00:58:22.073Z,8.00
2018-04-20T00:59:22.074Z,8.00
2018-04-20T01:00:22.074Z,8.00
2018-04-20T01:01:22.073Z,8.00
2018-04-20T01:02:22.074Z,8.00
2018-04-20T01:03:22.073Z,8.00
2018-04-20T01:04:22.072Z,8.00
2018-04-20T01:05:22.072Z,8.00
2018-04-20T01:06:22.071Z,8.00
2018-04-20T01:07:22.072Z,8.00
2018-04-20T01:08:22.071Z,8.00
2018-04-20T01:09:22.071Z,8.00
2018-04-20T01:10:22.070Z,8.00
2018-04-20T01:11:22.071Z,8.00
2018-04-20T01:12:22.125Z,8.00
2018-04-20T01:13:22.069Z,8.00
2018-04-20T01:14:22.069Z,8.00
2018-04-20T01:15:22.095Z,8.00
2018-04-20T01:16:22.070Z,8.00
2018-04-20T01:17:22.069Z,8.00
2018-04-20T01:18:22.067Z,8.00
2018-04-20T01:19:22.068Z,8.00
2018-04-20T01:20:22.068Z,8.00
2018-04-20T01:21:22.068Z,8.00
2018-04-20T01:22:22.068Z,8.00
2018-04-20T01:23:22.067Z,8.00
2018-04-20T01:24:22.070Z,8.00
2018-04-20T01:25:22.066Z,8.00
2018-04-20T01:26:22.070Z,8.00
2018-04-20T01:27:22.067Z,8.00
2018-04-20T01:28:22.068Z,8.00
2018-04-20T01:29:22.065Z,8.00
2018-04-20T01:30:22.064Z,8.00
2018-04-20T01:31:22.068Z,8.00
2018-04-20T01:32:22.062Z,8.00
2018-04-20T01:33:22.067Z,8.00
2018-04-20T01:34:22.061Z,8.00
2018-04-20T01:35:22.061Z,8.00
2018-04-20T01:36:22.061Z,8.00
2018-04-20T01:37:22.060Z,8.00
2018-04-20T01:38:22.059Z,8.00
2018-04-20T01:39:22.063Z,8.00
2018-04-20T01:40:22.058Z,8.00
2018-04-20T01:41:22.057Z,8.00
2018-04-20T01:42:22.058Z,8.00
2018-04-20T01:43:22.057Z,8.00
2018-04-20T01:44:22.055Z,8.00
2018-04-20T01:45:22.057Z,8.00
2018-04-20T01:46:22.056Z,8.00
2018-04-20T01:47:22.054Z,8.00
2018-04-20T01:48:22.053Z,8.00
2018-04-20T01:49:22.053Z,8.00
2018-04-20T01:50:22.052Z,8.00
2018-04-20T01:51:22.053Z,8.00
2018-04-20T01:52:22.051Z,8.00
2018-04-20T01:53:22.053Z,8.00
2018-04-20T01:54:22.050Z,8.00
2018-04-20T01:55:22.049Z,8.00
2018-04-20T01:56:22.057Z,8.00
2018-04-20T01:57:22.048Z,8.00
2018-04-20T01:58:22.048Z,8.00
2018-04-20T01:59:22.055Z,8.00
2018-04-20T02:00:22.047Z,8.00
2018-04-20T02:01:22.047Z,8.00
2018-04-20T02:02:22.044Z,8.00
2018-04-20T02:03:22.045Z,8.00
2018-04-20T02:04:22.045Z,8.00
2018-04-20T02:05:22.045Z,8.00
2018-04-20T02:06:22.042Z,8.00
2018-04-20T02:07:22.042Z,8.00
2018-04-20T02:08:22.046Z,8.00
2018-04-20T02:09:22.042Z,8.00
2018-04-20T02:10:22.043Z,8.00
2018-04-20T02:11:22.039Z,8.00
2018-04-20T02:12:22.041Z,8.00
2018-04-20T02:13:22.041Z,8.00
2018-04-20T02:14:22.037Z,8.00
2018-04-20T02:15:22.040Z,8.00
2018-04-20T02:16:22.042Z,8.00
2018-04-20T02:17:22.036Z,8.00
2018-04-20T02:18:22.035Z,8.00
2018-04-20T02:19:22.058Z,8.00
2018-04-20T02:20:22.034Z,8.00
2018-04-20T02:21:22.034Z,8.00
2018-04-20T02:22:22.032Z,8.00
2018-04-20T02:23:22.031Z,8.00
2018-04-20T02:24:22.032Z,8.00
2018-04-20T02:25:22.032Z,8.00
2018-04-20T02:26:22.029Z,8.00
2018-04-20T02:27:22.028Z,8.00
2018-04-20T02:28:22.033Z,8.00
2018-04-20T02:29:22.030Z,8.00
2018-04-20T02:30:22.031Z,8.00
2018-04-20T02:31:22.027Z,8.00
2018-04-20T02:32:22.026Z,8.00
2018-04-20T02:33:22.025Z,8.00
2018-04-20T02:34:22.023Z,8.00
2018-04-20T02:35:22.024Z,8.00
2018-04-20T02:36:22.075Z,8.00
2018-04-20T02:37:22.035Z,8.00
2018-04-20T02:38:22.022Z,8.00
2018-04-20T02:39:22.024Z,8.00
2018-04-20T02:40:22.028Z,8.00
2018-04-20T02:41:22.019Z,8.00
2018-04-20T02:42:22.027Z,8.00
2018-04-20T02:43:22.016Z,8.00
2018-04-20T02:44:22.017Z,8.00
2018-04-20T02:45:22.028Z,8.00
2018-04-20T02:46:22.013Z,8.00
2018-04-20T02:47:22.020Z,8.00
2018-04-20T02:48:22.012Z,8.00
2018-04-20T02:49:22.013Z,8.00
2018-04-20T02:50:22.012Z,8.00
2018-04-20T02:51:22.011Z,8.00
2018-04-20T02:52:22.009Z,8.00
2018-04-20T02:53:22.011Z,8.00
2018-04-20T02:54:22.007Z,8.00
2018-04-20T02:55:22.005Z,8.00
2018-04-20T02:56:22.005Z,8.00
2018-04-20T02:57:22.006Z,8.00
2018-04-20T02:58:22.003Z,8.00
2018-04-20T02:59:22.000Z,8.00
2018-04-20T03:00:21.999Z,8.00
2018-04-20T03:01:22.002Z,8.00
2018-04-20T03:02:21.996Z,8.00
2018-04-20T03:03:22.013Z,8.00
2018-04-20T03:04:22.004Z,8.00
2018-04-20T03:05:21.996Z,8.00
2018-04-20T03:06:21.991Z,8.00
2018-04-20T03:07:21.994Z,8.00
2018-04-20T03:08:21.989Z,8.00
2018-04-20T03:09:21.992Z,8.00
2018-04-20T03:10:21.999Z,8.00
2018-04-20T03:11:21.987Z,8.00
2018-04-20T03:12:21.991Z,8.00
2018-04-20T03:13:21.983Z,8.00
2018-04-20T03:14:21.992Z,8.00
2018-04-20T03:15:21.982Z,8.00
2018-04-20T03:16:21.986Z,8.00
2018-04-20T03:17:21.978Z,8.00
2018-04-20T03:18:36.742Z,8.00
2018-04-20T03:19:21.978Z,8.00
2018-04-20T03:20:21.976Z,8.00
2018-04-20T03:21:21.978Z,8.00
2018-04-20T03:22:21.990Z,8.00
2018-04-20T03:23:21.972Z,8.00
2018-04-20T03:24:21.971Z,8.00
2018-04-20T03:25:21.977Z,8.00
2018-04-20T03:26:21.969Z,8.00
2018-04-20T03:27:21.967Z,8.00
2018-04-20T03:28:21.968Z,8.00
2018-04-20T03:29:21.964Z,8.00
2018-04-20T03:30:21.980Z,8.00
2018-04-20T03:31:21.961Z,8.00
2018-04-20T03:32:21.960Z,8.00
2018-04-20T03:33:21.959Z,12.00
2018-04-20T03:34:21.955Z,12.00
2018-04-20T03:35:21.954Z,12.00
2018-04-20T03:36:21.952Z,12.00
2018-04-20T03:37:21.953Z,12.00
2018-04-20T03:38:21.948Z,12.00
2018-04-20T03:39:21.981Z,8.00
2018-04-20T03:40:21.946Z,8.00
2018-04-20T03:41:21.945Z,8.00
2018-04-20T03:42:21.943Z,12.00
2018-04-20T03:43:21.943Z,12.00
2018-04-20T03:44:21.943Z,8.00
2018-04-20T03:45:21.939Z,12.00
2018-04-20T03:46:21.946Z,12.00
2018-04-20T03:47:21.935Z,8.00
2018-04-20T03:48:21.934Z,8.00
2018-04-20T03:49:21.932Z,8.00
2018-04-20T03:50:21.930Z,12.00
2018-04-20T03:51:21.928Z,12.00
2018-04-20T03:52:21.927Z,12.00
2018-04-20T03:53:21.925Z,12.00
2018-04-20T03:54:21.925Z,16.00
2018-04-20T03:55:21.923Z,16.00
2018-04-20T03:56:21.976Z,20.00
2018-04-20T03:57:21.919Z,20.00
2018-04-20T03:58:21.917Z,20.00
2018-04-20T03:59:21.919Z,28.00
2018-04-20T04:00:21.919Z,28.00
2018-04-20T04:01:21.913Z,28.00
2018-04-20T04:02:21.911Z,32.00
2018-04-20T04:03:21.911Z,36.00
2018-04-20T04:04:21.908Z,40.00
2018-04-20T04:05:21.907Z,44.00
2018-04-20T04:06:21.905Z,48.00
2018-04-20T04:07:21.903Z,52.00
2018-04-20T04:08:21.901Z,56.00
2018-04-20T04:09:21.910Z,60.00
2018-04-20T04:10:21.898Z,64.00
2018-04-20T04:11:21.899Z,72.00
2018-04-20T04:12:21.929Z,76.00
2018-04-20T04:13:21.894Z,84.00
2018-04-20T04:14:21.892Z,88.00
2018-04-20T04:15:21.902Z,100.00
2018-04-20T04:16:21.890Z,104.00
2018-04-20T04:17:21.888Z,116.00
2018-04-20T04:18:21.885Z,120.00
2018-04-20T04:19:21.886Z,128.00
2018-04-20T04:20:21.883Z,136.00
2018-04-20T04:21:21.882Z,148.00
2018-04-20T04:22:21.878Z,160.00
2018-04-20T04:23:21.877Z,172.00
2018-04-20T04:24:21.877Z,180.00
2018-04-20T04:25:21.874Z,196.00
2018-04-20T04:26:21.922Z,208.00
2018-04-20T04:27:21.870Z,216.00
2018-04-20T04:28:21.874Z,232.00
2018-04-20T04:29:21.874Z,244.00
2018-04-20T04:30:21.865Z,252.00
2018-04-20T04:31:21.864Z,268.00
2018-04-20T04:32:21.875Z,280.00
2018-04-20T04:33:21.860Z,292.00
2018-04-20T04:34:21.861Z,308.00
2018-04-20T04:35:21.857Z,328.00
2018-04-20T04:36:21.860Z,344.00
2018-04-20T04:37:21.853Z,360.00
2018-04-20T04:38:21.859Z,372.00
2018-04-20T04:39:21.849Z,384.00
2018-04-20T04:40:21.879Z,396.00
2018-04-20T04:41:21.851Z,408.00
2018-04-20T04:42:21.844Z,428.00
2018-04-20T04:43:21.869Z,452.00
2018-04-20T04:44:21.841Z,488.00
2018-04-20T04:45:21.841Z,576.00
2018-04-20T04:46:21.838Z,768.00
2018-04-20T04:47:21.836Z,864.00
2018-04-20T04:48:21.847Z,768.00
2018-04-20T04:49:21.833Z,656.00
2018-04-20T04:50:21.833Z,644.00
2018-04-20T04:51:21.831Z,680.00
2018-04-20T04:52:21.830Z,788.00
2018-04-20T04:53:21.828Z,1000.00
2018-04-20T04:54:21.824Z,1148.00
2018-04-20T04:55:21.823Z,1152.00
2018-04-20T04:56:21.825Z,1132.00
2018-04-20T04:57:21.821Z,1124.00
2018-04-20T04:58:21.825Z,1260.00
2018-04-20T04:59:21.831Z,1544.00
2018-04-20T05:00:21.816Z,1428.00
2018-04-20T05:01:21.817Z,1096.00
2018-04-20T05:02:21.818Z,1100.00
2018-04-20T05:03:21.812Z,1148.00
2018-04-20T05:04:21.811Z,1268.00
2018-04-20T05:05:21.810Z,1356.00
2018-04-20T05:06:21.831Z,1416.00
2018-04-20T05:07:21.808Z,1528.00
2018-04-20T05:08:21.806Z,1640.00
2018-04-20T05:09:21.805Z,1704.00
2018-04-20T05:10:21.803Z,1752.00
2018-04-20T05:11:21.802Z,1828.00
2018-04-20T05:12:21.802Z,1960.00
2018-04-20T05:13:21.803Z,2068.00
2018-04-20T05:14:21.801Z,2124.00
2018-04-20T05:15:21.802Z,2228.00
2018-04-20T05:16:21.797Z,2304.00
2018-04-20T05:17:21.796Z,2360.00
2018-04-20T05:18:21.796Z,2396.00
2018-04-20T05:19:21.849Z,2208.00
2018-04-20T05:20:21.793Z,2236.00
2018-04-20T05:21:21.804Z,2268.00
2018-04-20T05:22:21.792Z,2400.00
2018-04-20T05:23:21.794Z,2496.00
2018-04-20T05:24:21.792Z,2536.00
2018-04-20T05:25:21.829Z,2612.00
2018-04-20T05:26:21.788Z,2668.00
2018-04-20T05:27:21.791Z,2652.00
2018-04-20T05:28:21.787Z,2712.00
2018-04-20T05:29:21.786Z,2860.00
2018-04-20T05:30:21.786Z,3004.00
2018-04-20T05:31:21.795Z,3160.00
2018-04-20T05:32:21.784Z,3948.00
2018-04-20T05:33:21.786Z,4696.00
2018-04-20T05:34:21.782Z,4396.00
2018-04-20T05:35:21.785Z,4776.00
2018-04-20T05:36:21.794Z,5336.00
2018-04-20T05:37:21.782Z,4376.00
2018-04-20T05:38:21.783Z,3216.00
2018-04-20T05:39:21.780Z,2964.00
2018-04-20T05:40:21.780Z,2892.00
2018-04-20T05:41:21.781Z,2892.00
2018-04-20T05:42:21.779Z,2932.00
2018-04-20T05:43:21.779Z,3016.00
2018-04-20T05:44:21.779Z,3128.00
2018-04-20T05:45:21.781Z,3204.00
2018-04-20T05:46:21.781Z,3212.00
2018-04-20T05:47:21.784Z,3192.00
2018-04-20T05:48:21.782Z,3152.00
2018-04-20T05:49:21.782Z,3148.00
2018-04-20T05:50:21.778Z,3212.00
2018-04-20T05:51:21.779Z,3348.00
2018-04-20T05:52:21.779Z,3404.00
2018-04-20T05:53:21.780Z,3496.00
2018-04-20T05:54:21.780Z,3704.00
2018-04-20T05:55:21.780Z,3812.00
2018-04-20T05:56:21.777Z,3808.00
2018-04-20T05:57:21.777Z,3800.00
2018-04-20T05:58:21.783Z,3796.00
2018-04-20T05:59:21.777Z,3720.00
2018-04-20T06:00:21.776Z,3520.00
2018-04-20T06:01:21.835Z,3120.00
2018-04-20T06:02:21.778Z,3312.00
2018-04-20T06:03:21.776Z,3388.00
2018-04-20T06:04:21.778Z,3480.00
2018-04-20T06:05:21.779Z,3448.00
2018-04-20T06:06:21.775Z,3244.00
2018-04-20T06:07:21.775Z,3180.00
2018-04-20T06:08:21.776Z,3144.00
2018-04-20T06:09:21.781Z,3120.00
2018-04-20T06:10:21.806Z,3176.00
2018-04-20T06:11:21.776Z,3220.00
2018-04-20T06:12:21.774Z,3156.00
2018-04-20T06:13:21.775Z,3016.00
2018-04-20T06:14:21.773Z,3028.00
2018-04-20T06:15:21.775Z,2920.00
2018-04-20T06:16:21.776Z,2788.00
2018-04-20T06:17:21.774Z,2636.00
2018-04-20T06:18:21.778Z,2460.00
2018-04-20T06:19:21.773Z,2268.00
2018-04-20T06:20:21.821Z,2108.00
2018-04-20T06:21:21.835Z,1928.00
2018-04-20T06:22:21.774Z,1752.00
2018-04-20T06:23:21.774Z,1684.00
2018-04-20T06:24:21.772Z,1600.00
2018-04-20T06:25:21.771Z,1536.00
2018-04-20T06:26:21.816Z,1476.00
2018-04-20T06:27:21.774Z,1432.00
2018-04-20T06:28:21.778Z,1400.00
2018-04-20T06:29:21.771Z,1384.00
2018-04-20T06:30:21.769Z,1376.00
2018-04-20T06:31:21.772Z,1368.00
2018-04-20T06:32:21.775Z,1348.00
2018-04-20T06:33:21.770Z,1356.00
2018-04-20T06:34:21.768Z,1360.00
2018-04-20T06:35:21.846Z,1360.00
2018-04-20T06:36:21.984Z,1360.00
2018-04-20T06:37:21.770Z,1360.00
2018-04-20T06:38:21.842Z,1364.00
2018-04-20T06:39:21.832Z,1360.00
2018-04-20T06:40:21.767Z,1360.00
2018-04-20T06:41:21.824Z,1360.00
2018-04-20T06:42:21.765Z,1360.00
2018-04-20T06:43:21.765Z,1360.00
2018-04-20T06:44:21.768Z,1360.00
2018-04-20T06:45:21.767Z,1364.00
2018-04-20T06:46:21.767Z,1368.00
2018-04-20T06:47:21.772Z,1368.00
2018-04-20T06:48:21.764Z,1372.00
2018-04-20T06:49:21.874Z,1376.00
2018-04-20T06:50:21.764Z,1384.00
2018-04-20T06:51:21.766Z,1384.00
2018-04-20T06:52:21.831Z,1392.00
2018-04-20T06:53:21.763Z,1396.00
2018-04-20T06:54:21.780Z,1400.00
2018-04-20T06:55:21.762Z,1408.00
2018-04-20T06:56:21.762Z,1412.00
2018-04-20T06:57:21.761Z,1420.00
2018-04-20T06:58:21.762Z,1428.00
2018-04-20T06:59:21.761Z,1432.00
2018-04-20T07:00:21.764Z,1436.00
2018-04-20T07:01:21.762Z,1448.00
2018-04-20T07:02:21.761Z,1448.00
2018-04-20T07:03:21.762Z,1452.00
2018-04-20T07:04:21.774Z,1460.00
2018-04-20T07:05:21.762Z,1464.00
2018-04-20T07:06:21.761Z,1468.00
2018-04-20T07:07:21.780Z,1476.00
2018-04-20T07:08:21.764Z,1476.00
2018-04-20T07:09:21.762Z,1472.00
2018-04-20T07:10:21.761Z,1468.00
2018-04-20T07:11:21.767Z,1472.00
2018-04-20T07:12:21.764Z,1460.00
2018-04-20T07:13:21.764Z,1444.00
2018-04-20T07:14:21.767Z,1448.00
2018-04-20T07:15:21.763Z,1448.00
2018-04-20T07:16:21.763Z,1440.00
2018-04-20T07:17:21.764Z,1436.00
2018-04-20T07:18:21.762Z,1428.00
2018-04-20T07:19:21.766Z,1456.00
2018-04-20T07:20:21.801Z,1408.00
2018-04-20T07:21:21.765Z,1408.00
2018-04-20T07:22:21.767Z,1396.00
2018-04-20T07:23:21.772Z,1392.00
2018-04-20T07:24:21.766Z,1392.00
2018-04-20T07:25:21.771Z,1376.00
2018-04-20T07:26:21.767Z,1372.00
2018-04-20T07:27:21.771Z,1376.00
2018-04-20T07:28:21.768Z,1388.00
2018-04-20T07:29:21.772Z,1392.00
2018-04-20T07:30:21.777Z,1396.00
2018-04-20T07:31:21.770Z,1392.00
2018-04-20T07:32:21.776Z,1428.00
2018-04-20T07:33:21.772Z,1420.00
2018-04-20T07:34:21.775Z,1424.00
2018-04-20T07:35:21.781Z,1424.00
2018-04-20T07:36:21.794Z,1424.00
2018-04-20T07:37:21.778Z,1428.00
2018-04-20T07:38:21.776Z,1428.00
2018-04-20T07:39:21.790Z,1460.00
2018-04-20T07:40:21.781Z,1432.00
2018-04-20T07:41:21.845Z,1428.00
2018-04-20T07:42:21.797Z,1424.00
2018-04-20T07:43:21.790Z,1424.00
2018-04-20T07:44:21.788Z,1424.00
2018-04-20T07:45:21.797Z,1420.00
2018-04-20T07:46:21.818Z,1416.00
2018-04-20T07:47:21.788Z,1412.00
2018-04-20T07:48:21.814Z,1408.00
2018-04-20T07:49:21.794Z,1404.00
2018-04-20T07:50:21.845Z,1404.00
2018-04-20T07:51:21.791Z,1404.00
2018-04-20T07:52:21.797Z,1396.00
2018-04-20T07:53:21.811Z,1392.00
2018-04-20T07:54:21.802Z,1392.00
2018-04-20T07:55:21.798Z,1388.00
2018-04-20T07:56:21.801Z,1392.00
2018-04-20T07:57:21.799Z,1396.00
2018-04-20T07:58:21.803Z,1388.00
2018-04-20T07:59:21.803Z,1372.00
2018-04-20T08:00:21.817Z,1368.00
2018-04-20T08:01:21.807Z,1368.00
2018-04-20T08:02:21.811Z,1368.00
2018-04-20T08:03:21.813Z,1368.00
2018-04-20T08:04:21.817Z,1420.00
2018-04-20T08:05:21.814Z,1368.00
2018-04-20T08:06:21.814Z,1368.00
2018-04-20T08:07:21.814Z,1372.00
2018-04-20T08:08:21.847Z,1372.00
2018-04-20T08:09:21.960Z,1372.00
2018-04-20T08:10:21.819Z,1376.00
2018-04-20T08:11:21.823Z,1372.00
2018-04-20T08:12:21.841Z,1380.00
2018-04-20T08:13:21.827Z,1384.00
2018-04-20T08:14:21.835Z,1384.00
2018-04-20T08:15:21.828Z,1384.00
2018-04-20T08:16:21.835Z,1396.00
2018-04-20T08:17:26.468Z,1404.00
2018-04-20T08:18:21.837Z,1408.00
2018-04-20T08:20:16.306Z,1420.00
2018-04-20T08:21:16.219Z,1424.00
2018-04-20T08:23:12.867Z,1436.00
2018-04-20T08:24:10.601Z,1476.00
2018-04-20T08:25:10.605Z,1484.00
2018-04-20T08:26:10.610Z,1456.00
2018-04-20T08:27:10.614Z,1468.00
2018-04-20T08:28:10.612Z,1472.00
2018-04-20T08:29:10.616Z,1476.00
2018-04-20T08:30:10.621Z,1484.00
2018-04-20T08:31:10.618Z,1488.00
2018-04-20T08:32:10.627Z,1496.00
2018-04-20T08:33:10.626Z,1504.00
2018-04-20T08:34:10.665Z,1516.00
2018-04-20T08:35:10.629Z,1524.00
2018-04-20T08:36:11.032Z,1536.00
2018-04-20T08:37:10.832Z,1540.00
2018-04-20T08:38:10.636Z,1544.00
2018-04-20T08:39:10.679Z,1544.00
2018-04-20T08:40:13.324Z,1560.00
2018-04-20T08:41:10.646Z,1752.00
2018-04-20T08:43:06.246Z,1764.00
2018-04-20T08:44:05.540Z,1780.00
2018-04-20T08:45:59.970Z,1796.00
2018-04-20T08:47:00.047Z,1612.00
2018-04-20T08:48:54.300Z,1640.00
2018-04-20T08:49:54.299Z,1652.00
2018-04-20T08:51:48.802Z,1676.00
2018-04-20T08:52:48.688Z,1688.00
2018-04-20T08:54:44.065Z,1712.00
2018-04-20T08:55:43.084Z,1748.00
2018-04-20T08:57:37.763Z,1760.00
2018-04-20T08:58:37.642Z,1776.00
2018-04-20T09:00:32.036Z,1804.00
2018-04-20T09:01:32.129Z,1820.00
2018-04-20T09:03:26.501Z,1844.00
2018-04-20T09:04:26.419Z,1852.00
2018-04-20T09:06:20.822Z,1872.00
2018-04-20T09:07:20.807Z,1880.00
2018-04-20T09:09:15.234Z,1880.00
2018-04-20T09:10:15.195Z,1892.00
2018-04-20T09:12:09.585Z,1944.00
2018-04-20T09:13:09.623Z,1896.00
2018-04-20T09:15:04.210Z,1908.00
2018-04-20T09:16:04.690Z,1912.00
2018-04-20T09:17:58.464Z,1920.00
2018-04-20T09:18:58.372Z,1928.00
2018-04-20T09:20:52.797Z,1936.00
2018-04-20T09:21:52.761Z,1928.00
2018-04-20T09:23:47.166Z,1984.00
2018-04-20T09:24:47.167Z,1992.00
2018-04-20T09:26:41.602Z,2000.00
2018-04-20T09:27:41.557Z,1988.00
2018-04-20T09:29:36.042Z,1996.00
2018-04-20T09:30:35.959Z,2004.00
2018-04-20T09:32:30.344Z,2000.00
2018-04-20T09:33:30.346Z,2008.00
2018-04-20T09:35:24.791Z,2000.00
2018-04-20T09:36:24.733Z,1996.00
2018-04-20T09:38:19.124Z,2004.00
2018-04-20T09:39:19.124Z,2000.00
2018-04-20T09:41:13.578Z,2000.00
2018-04-20T09:42:13.524Z,1992.00
2018-04-20T09:44:07.944Z,2004.00
2018-04-20T09:45:07.946Z,2008.00
2018-04-20T09:47:02.484Z,1972.00
2018-04-20T09:48:02.348Z,1972.00
2018-04-20T09:49:58.680Z,1964.00
2018-04-20T09:50:58.071Z,1964.00
2018-04-20T09:52:53.303Z,1952.00
2018-04-20T09:53:52.527Z,1948.00
2018-04-20T09:55:46.912Z,1932.00
2018-04-20T09:56:46.864Z,1936.00
2018-04-20T09:58:41.302Z,1928.00
2018-04-20T09:59:41.255Z,1924.00
2018-04-20T10:01:35.636Z,1920.00
2018-04-20T10:02:35.632Z,1920.00
2018-04-20T10:04:30.240Z,1920.00
2018-04-20T10:05:30.146Z,1920.00
2018-04-20T10:07:24.532Z,1920.00
2018-04-20T10:08:24.539Z,1912.00
2018-04-20T10:10:18.968Z,1916.00
2018-04-20T10:11:18.921Z,1920.00
2018-04-20T10:13:13.358Z,1916.00
2018-04-20T10:14:13.312Z,1916.00
2018-04-20T10:16:07.703Z,1916.00
2018-04-20T10:17:07.708Z,1916.00
2018-04-20T10:19:07.565Z,1924.00
2018-04-20T10:20:06.738Z,1924.00
2018-04-20T10:22:01.135Z,1932.00
2018-04-20T10:23:01.135Z,1940.00
2018-04-20T10:24:55.743Z,1948.00
2018-04-20T10:25:55.626Z,1940.00
2018-04-20T10:27:50.085Z,1964.00
2018-04-20T10:28:50.081Z,1968.00
2018-04-20T10:30:44.464Z,1992.00
2018-04-20T10:31:44.426Z,2000.00
2018-04-20T10:33:38.840Z,2012.00
2018-04-20T10:34:38.797Z,2024.00
2018-04-20T10:36:33.350Z,2064.00
2018-04-20T10:37:33.208Z,2076.00
2018-04-20T10:39:27.598Z,2072.00
2018-04-20T10:40:27.606Z,2076.00
2018-04-20T10:42:22.518Z,2084.00
2018-04-20T10:43:21.996Z,2080.00
2018-04-20T10:45:16.387Z,2040.00
2018-04-20T10:46:16.389Z,2040.00
2018-04-20T10:48:10.838Z,2036.00
2018-04-20T10:49:10.785Z,2032.00
2018-04-20T10:51:05.174Z,2032.00
2018-04-20T10:52:05.187Z,2036.00
2018-04-20T10:53:59.617Z,2020.00
2018-04-20T10:54:59.571Z,2024.00
2018-04-20T10:56:53.971Z,2020.00
2018-04-20T10:57:53.964Z,2020.00
2018-04-20T10:59:48.475Z,2012.00
2018-04-20T11:00:48.368Z,2016.00
2018-04-20T11:02:42.817Z,2012.00
2018-04-20T11:03:42.766Z,1996.00
2018-04-20T11:05:37.159Z,2000.00
2018-04-20T11:06:37.158Z,2000.00
2018-04-20T11:08:31.642Z,1988.00
2018-04-20T11:09:31.565Z,1988.00
2018-04-20T11:11:25.981Z,2000.00
2018-04-20T11:12:25.959Z,1996.00
2018-04-20T11:14:20.421Z,1996.00
2018-04-20T11:15:20.379Z,1992.00
2018-04-20T11:17:14.880Z,2000.00
2018-04-20T11:18:14.775Z,1984.00
2018-04-20T11:20:09.168Z,1980.00
2018-04-20T11:21:09.169Z,1976.00
2018-04-20T11:23:03.739Z,1964.00
2018-04-20T11:24:03.570Z,1968.00
2018-04-20T11:25:57.958Z,1980.00
2018-04-20T11:26:57.961Z,1964.00
2018-04-20T11:28:52.648Z,1972.00
2018-04-20T11:29:52.359Z,1984.00
2018-04-20T11:31:46.787Z,1988.00
2018-04-20T11:32:46.790Z,1984.00
2018-04-20T11:34:41.289Z,1968.00
2018-04-20T11:35:41.182Z,1960.00
2018-04-20T11:37:35.610Z,1952.00
2018-04-20T11:38:35.584Z,1944.00
2018-04-20T11:40:29.956Z,1948.00
2018-04-20T11:41:29.967Z,1940.00
2018-04-20T11:43:24.424Z,1944.00
2018-04-20T11:44:24.469Z,1932.00
2018-04-20T11:46:25.759Z,1948.00
2018-04-20T11:47:25.740Z,1944.00
2018-04-20T11:49:20.100Z,1948.00
2018-04-20T11:50:20.106Z,1940.00
2018-04-20T11:52:14.630Z,1956.00
2018-04-20T11:53:14.523Z,1948.00
2018-04-20T11:55:11.581Z,1956.00
2018-04-20T11:56:10.228Z,1944.00
2018-04-20T11:58:04.723Z,1932.00
2018-04-20T11:59:04.619Z,1940.00
2018-04-20T12:00:59.013Z,1932.00
2018-04-20T12:01:59.015Z,1932.00
2018-04-20T12:03:53.489Z,1912.00
2018-04-20T12:04:53.431Z,1908.00
2018-04-20T12:06:47.862Z,1888.00
2018-04-20T12:07:47.836Z,1892.00
2018-04-20T12:09:42.279Z,1896.00
2018-04-20T12:10:42.224Z,1888.00
2018-04-20T12:12:36.682Z,1892.00
2018-04-20T12:13:36.618Z,1880.00
2018-04-20T12:15:31.159Z,1896.00
2018-04-20T12:16:31.047Z,1896.00
2018-04-20T12:18:25.459Z,1896.00
2018-04-20T12:19:25.464Z,1884.00
2018-04-20T12:21:20.008Z,1892.00
2018-04-20T12:22:19.864Z,1896.00
2018-04-20T12:24:14.275Z,1880.00
2018-04-20T12:25:14.261Z,1884.00
2018-04-20T12:27:08.743Z,1872.00
2018-04-20T12:28:08.658Z,1868.00
2018-04-20T12:30:03.053Z,1872.00
2018-04-20T12:31:03.065Z,1864.00
2018-04-20T12:32:57.560Z,1876.00
2018-04-20T12:33:57.454Z,1864.00
2018-04-20T12:35:51.892Z,1868.00
2018-04-20T12:36:51.848Z,1864.00
2018-04-20T12:38:46.255Z,1852.00
2018-04-20T12:39:46.246Z,1852.00
2018-04-20T12:41:40.690Z,1852.00
2018-04-20T12:42:40.642Z,1848.00
2018-04-20T12:44:35.040Z,1832.00
2018-04-20T12:45:35.088Z,1840.00
2018-04-20T12:47:29.642Z,1836.00
2018-04-20T12:48:29.454Z,1836.00
2018-04-20T12:50:23.925Z,1844.00
2018-04-20T12:51:23.943Z,1844.00
2018-04-20T12:53:18.372Z,1840.00
2018-04-20T12:54:18.333Z,1828.00
2018-04-20T12:56:13.332Z,1840.00
2018-04-20T12:57:12.909Z,1852.00
2018-04-20T12:59:07.327Z,1844.00
2018-04-20T13:00:07.811Z,1900.00
2018-04-20T13:02:01.937Z,1860.00
2018-04-20T13:03:01.715Z,1856.00
2018-04-20T13:04:56.101Z,1872.00
2018-04-20T13:05:56.109Z,1868.00
2018-04-20T13:07:50.618Z,1876.00
2018-04-20T13:08:50.518Z,1892.00
2018-04-20T13:10:44.916Z,1892.00
2018-04-20T13:11:44.921Z,1900.00
2018-04-20T13:13:39.348Z,1892.00
2018-04-20T13:14:39.358Z,1944.00
2018-04-20T13:16:33.757Z,1948.00
2018-04-20T13:17:33.708Z,1956.00
2018-04-20T13:19:28.100Z,1960.00
2018-04-20T13:20:28.113Z,1912.00
2018-04-20T13:22:22.574Z,1924.00
2018-04-20T13:23:22.539Z,1928.00
2018-04-20T13:25:17.047Z,1928.00
2018-04-20T13:26:16.940Z,1928.00
2018-04-20T13:28:11.394Z,1944.00
2018-04-20T13:29:11.360Z,1940.00
2018-04-20T13:31:06.677Z,1928.00
2018-04-20T13:32:05.735Z,1928.00
2018-04-20T13:34:00.127Z,1932.00
2018-04-20T13:35:00.718Z,1928.00
2018-04-20T13:36:54.656Z,1924.00
2018-04-20T13:37:54.574Z,1924.00
2018-04-20T13:39:49.432Z,1924.00
2018-04-20T13:40:48.978Z,1920.00
2018-04-20T13:42:43.376Z,1916.00
2018-04-20T13:43:43.382Z,1908.00
2018-04-20T13:45:38.352Z,1912.00
2018-04-20T13:46:37.780Z,1908.00
2018-04-20T13:48:33.596Z,1912.00
2018-04-20T13:49:32.186Z,1908.00
2018-04-20T13:51:26.685Z,1920.00
2018-04-20T13:52:26.594Z,1920.00
2018-04-20T13:54:21.018Z,1912.00
2018-04-20T13:55:21.586Z,1912.00
2018-04-20T13:57:15.386Z,1900.00
2018-04-20T13:58:15.375Z,1900.00
2018-04-20T14:00:14.673Z,1900.00
2018-04-20T14:01:14.562Z,1896.00
2018-04-20T14:03:19.461Z,1884.00
2018-04-20T14:04:08.994Z,1884.00
2018-04-20T14:06:03.784Z,1876.00
2018-04-20T14:07:03.401Z,1872.00
2018-04-20T14:08:58.625Z,1872.00
2018-04-20T14:09:58.007Z,1872.00
2018-04-20T14:11:52.249Z,1864.00
2018-04-20T14:12:52.377Z,1856.00
2018-04-20T14:14:46.623Z,1848.00
2018-04-20T14:15:46.625Z,1844.00